Time;durP1;ratioP1;P1;durP2;ratioP2;P2;SDS_P1;SDS_P2;PMS_P1;PMS_P2;Temp;Humidity;BMP_temperature;BMP_pressure;BME280_temperature;BME280_humidity;BME280_pressure;Samples;Min_cycle;Max_cycle;Signal;HPM_P1;HPM_P2
2021/03/29 00:00:45;;;;;;;13.17;8.23;;;8.10;99.90;;;;;;5033307;28;20200;-62
2021/03/29 00:03:12;;;;;;;10.50;7.53;;;8.10;99.90;;;;;;5035052;28;20232;-62
2021/03/29 00:05:39;;;;;;;14.40;8.87;;;8.10;99.90;;;;;;5034062;28;20200;-62
2021/03/29 00:08:10;;;;;;;12.43;7.67;;;8.10;99.90;;;;;;5033695;28;20201;-62
2021/03/29 00:10:38;;;;;;;13.47;8.10;;;8.10;99.90;;;;;;5032069;28;20205;-60
2021/03/29 00:13:06;;;;;;;14.00;8.40;;;8.00;99.90;;;;;;5035074;28;20196;-63
2021/03/29 00:15:37;;;;;;;14.77;7.83;;;8.00;99.90;;;;;;5034965;28;20610;-60
2021/03/29 00:18:07;;;;;;;11.90;7.83;;;8.00;99.90;;;;;;5034014;28;20193;-60
2021/03/29 00:20:34;;;;;;;13.40;8.57;;;8.00;99.90;;;;;;5015283;28;20201;-60
2021/03/29 00:23:01;;;;;;;17.33;9.00;;;8.00;99.90;;;;;;5043049;28;20211;-61
2021/03/29 00:25:30;;;;;;;17.40;8.90;;;7.90;99.90;;;;;;5031233;28;20712;-61
2021/03/29 00:27:57;;;;;;;14.53;8.07;;;7.80;99.90;;;;;;5033214;28;20312;-61
2021/03/29 00:30:27;;;;;;;20.93;8.97;;;7.90;99.90;;;;;;5033733;28;20196;-60
2021/03/29 00:32:54;;;;;;;14.77;8.70;;;7.80;99.90;;;;;;5033980;28;20557;-60
2021/03/29 00:35:24;;;;;;;14.43;8.47;;;7.80;99.90;;;;;;5033840;28;20204;-60
2021/03/29 00:37:53;;;;;;;14.67;8.53;;;7.80;99.90;;;;;;5033402;28;20243;-61
2021/03/29 00:40:20;;;;;;;12.20;8.40;;;7.80;99.90;;;;;;5023868;28;20193;-60
2021/03/29 00:42:50;;;;;;;12.43;8.37;;;7.80;99.90;;;;;;5034178;28;20220;-60
2021/03/29 00:45:18;;;;;;;13.93;7.67;;;7.80;99.90;;;;;;5033025;28;20200;-60
2021/03/29 00:47:45;;;;;;;14.63;9.23;;;7.80;99.90;;;;;;5033472;28;20196;-60
2021/03/29 00:50:15;;;;;;;13.63;8.50;;;7.80;99.90;;;;;;5032375;28;20207;-60
2021/03/29 00:52:43;;;;;;;13.03;8.57;;;7.80;99.90;;;;;;5034059;28;20744;-60
2021/03/29 00:55:11;;;;;;;18.97;8.90;;;7.70;99.90;;;;;;5030941;28;20193;-60
2021/03/29 00:57:40;;;;;;;12.00;8.37;;;7.80;99.90;;;;;;5033349;28;20201;-60
2021/03/29 01:00:15;;;;;;;13.93;8.53;;;7.70;99.90;;;;;;5031289;28;20212;-61
2021/03/29 01:02:42;;;;;;;16.17;8.17;;;7.70;99.90;;;;;;5033963;28;20210;-60
2021/03/29 01:05:13;;;;;;;14.43;8.60;;;7.80;99.90;;;;;;5033334;28;20228;-61
2021/03/29 01:07:39;;;;;;;16.97;9.70;;;7.70;99.90;;;;;;5033160;28;20193;-62
2021/03/29 01:10:08;;;;;;;15.57;8.67;;;7.80;99.90;;;;;;5027025;28;20212;-60
2021/03/29 01:12:35;;;;;;;14.43;9.53;;;7.80;99.90;;;;;;5013602;28;20231;-61
2021/03/29 01:15:03;;;;;;;17.40;8.70;;;7.80;99.90;;;;;;5028510;28;20657;-60
2021/03/29 01:17:32;;;;;;;14.63;9.07;;;7.80;99.90;;;;;;5032916;28;20254;-60
2021/03/29 01:20:12;;;;;;;16.60;8.50;;;7.80;99.90;;;;;;5033752;28;20315;-61
2021/03/29 01:22:42;;;;;;;14.40;8.73;;;7.90;99.90;;;;;;5031913;28;20200;-61
2021/03/29 01:25:13;;;;;;;10.77;7.93;;;7.90;99.90;;;;;;5027497;28;20246;-61
2021/03/29 01:27:43;;;;;;;13.57;8.83;;;8.00;99.90;;;;;;5031527;28;20585;-61
2021/03/29 01:30:12;;;;;;;15.67;8.87;;;8.00;99.90;;;;;;5033324;28;20651;-61
2021/03/29 01:32:39;;;;;;;14.70;8.40;;;8.00;99.90;;;;;;5032416;28;20235;-61
2021/03/29 01:35:11;;;;;;;13.37;7.90;;;8.00;99.90;;;;;;5031661;28;20680;-61
2021/03/29 01:37:39;;;;;;;8.67;7.10;;;8.00;99.90;;;;;;5031841;28;20283;-62
2021/03/29 01:40:07;;;;;;;12.87;8.87;;;8.10;99.90;;;;;;5030480;28;20197;-61
2021/03/29 01:42:34;;;;;;;15.20;7.70;;;8.10;99.90;;;;;;5032892;28;20597;-61
2021/03/29 01:45:02;;;;;;;10.83;6.63;;;8.20;99.90;;;;;;5032334;28;20203;-61
2021/03/29 01:47:29;;;;;;;14.13;7.17;;;8.30;99.90;;;;;;5032294;28;20250;-62
2021/03/29 01:49:56;;;;;;;12.37;6.50;;;8.30;99.90;;;;;;5030762;28;20204;-61
2021/03/29 01:52:22;;;;;;;9.70;6.47;;;8.40;99.90;;;;;;5032131;28;20231;-61
2021/03/29 01:54:50;;;;;;;9.83;6.10;;;8.50;99.90;;;;;;5029749;28;20563;-61
2021/03/29 01:57:17;;;;;;;12.30;6.70;;;8.50;99.90;;;;;;5030955;28;20208;-62
2021/03/29 01:59:43;;;;;;;11.67;6.47;;;8.50;99.90;;;;;;5031897;28;20240;-61
2021/03/29 02:02:12;;;;;;;11.63;6.30;;;8.50;99.90;;;;;;5031073;28;20207;-62
2021/03/29 02:04:39;;;;;;;12.13;7.03;;;8.50;99.90;;;;;;5032554;28;20233;-61
2021/03/29 02:07:06;;;;;;;10.00;6.40;;;8.40;99.90;;;;;;5031513;28;20216;-62
2021/03/29 02:09:34;;;;;;;6.83;5.50;;;8.40;99.90;;;;;;5031554;28;20212;-61
2021/03/29 02:12:04;;;;;;;11.40;6.00;;;8.40;99.90;;;;;;5032224;28;20239;-61
2021/03/29 02:14:31;;;;;;;7.63;5.40;;;8.40;99.90;;;;;;5032673;28;20199;-61
2021/03/29 02:16:59;;;;;;;7.53;5.77;;;8.40;99.90;;;;;;5031549;28;20203;-62
2021/03/29 02:19:29;;;;;;;10.57;5.90;;;8.30;99.90;;;;;;5032683;28;20204;-61
2021/03/29 02:21:56;;;;;;;9.63;5.47;;;8.20;99.90;;;;;;5031694;28;20650;-61
2021/03/29 02:24:23;;;;;;;11.37;6.20;;;8.00;99.90;;;;;;5030007;28;20211;-61
2021/03/29 02:26:50;;;;;;;10.80;5.93;;;7.90;99.90;;;;;;5030017;28;20209;-61
2021/03/29 02:31:53;;;;;;;12.53;6.00;;;7.70;99.90;;;;;;5028851;23;20701;-60
2021/03/29 02:34:20;;;;;;;10.47;5.53;;;7.60;99.90;;;;;;4992431;28;20202;-60
2021/03/29 02:36:48;;;;;;;8.53;5.10;;;7.70;99.90;;;;;;4992907;28;20202;-62
2021/03/29 02:39:14;;;;;;;12.20;5.93;;;7.70;99.90;;;;;;4991205;28;20249;-60
2021/03/29 02:41:41;;;;;;;10.33;5.00;;;7.80;99.90;;;;;;4989887;28;20210;-62
2021/03/29 02:44:09;;;;;;;10.27;5.60;;;7.80;99.90;;;;;;4990439;28;20197;-61
2021/03/29 02:46:35;;;;;;;9.10;4.97;;;7.70;99.90;;;;;;4992613;28;20220;-60
2021/03/29 02:49:04;;;;;;;9.90;5.47;;;7.70;99.90;;;;;;4992873;28;20625;-60
2021/03/29 02:51:33;;;;;;;8.63;5.60;;;7.70;99.90;;;;;;4989600;28;20229;-62
2021/03/29 02:54:04;;;;;;;9.90;6.03;;;7.60;99.90;;;;;;4991702;28;20198;-63
2021/03/29 02:56:35;;;;;;;10.73;5.53;;;7.60;99.90;;;;;;4990268;28;20198;-62
2021/03/29 02:59:04;;;;;;;13.33;5.70;;;7.60;99.90;;;;;;4992055;28;20194;-61
2021/03/29 03:01:33;;;;;;;8.17;5.63;;;7.60;99.90;;;;;;4986695;28;20201;-61
2021/03/29 03:04:00;;;;;;;9.47;5.23;;;7.60;99.90;;;;;;4973239;28;20201;-61
2021/03/29 03:06:30;;;;;;;8.03;5.60;;;7.60;99.90;;;;;;4988386;28;20201;-60
2021/03/29 03:08:59;;;;;;;8.67;5.77;;;7.60;99.90;;;;;;4990885;28;20198;-61
2021/03/29 03:11:26;;;;;;;9.97;5.20;;;7.60;99.90;;;;;;4989841;28;20263;-61
2021/03/29 03:13:54;;;;;;;11.30;5.30;;;7.60;99.90;;;;;;4992516;28;20228;-61
2021/03/29 03:16:20;;;;;;;8.07;5.60;;;7.70;99.90;;;;;;4989947;28;20197;-61
2021/03/29 03:18:48;;;;;;;12.13;5.50;;;7.70;99.90;;;;;;4991484;28;20205;-60
2021/03/29 03:21:15;;;;;;;7.90;5.43;;;7.70;99.90;;;;;;4992222;28;20622;-61
2021/03/29 03:23:50;;;;;;;9.23;5.00;;;7.80;99.90;;;;;;4991706;28;20248;-61
2021/03/29 03:26:17;;;;;;;12.30;5.20;;;7.80;99.90;;;;;;4982387;28;20212;-61
2021/03/29 03:28:44;;;;;;;12.57;7.20;;;7.80;99.90;;;;;;4990440;28;20650;-61
2021/03/29 03:31:11;;;;;;;10.07;5.70;;;7.90;99.90;;;;;;4992233;28;20264;-61
2021/03/29 03:33:38;;;;;;;11.07;5.47;;;7.80;99.90;;;;;;4992570;28;20209;-61
2021/03/29 03:36:05;;;;;;;10.33;5.27;;;7.80;99.90;;;;;;4989696;28;20202;-60
2021/03/29 03:38:34;;;;;;;9.63;5.70;;;7.70;99.90;;;;;;4991106;28;20312;-62
2021/03/29 03:41:03;;;;;;;10.60;5.83;;;7.60;99.90;;;;;;4991599;28;20193;-61
2021/03/29 03:43:33;;;;;;;10.70;5.10;;;7.50;99.90;;;;;;4992531;28;20202;-60
2021/03/29 03:46:03;;;;;;;12.53;5.77;;;7.40;99.90;;;;;;4989251;28;20204;-61
2021/03/29 03:48:31;;;;;;;9.87;5.50;;;7.30;99.90;;;;;;4989786;28;20677;-61
2021/03/29 03:50:58;;;;;;;8.80;5.63;;;7.20;99.90;;;;;;4989850;28;20208;-61
2021/03/29 03:53:27;;;;;;;11.73;5.63;;;7.10;99.90;;;;;;4987823;28;20240;-62
2021/03/29 03:55:54;;;;;;;7.20;5.43;;;7.00;99.90;;;;;;4990057;28;20233;-62
2021/03/29 03:58:21;;;;;;;10.60;5.60;;;6.80;99.90;;;;;;4991871;28;20198;-60
2021/03/29 04:00:48;;;;;;;11.77;5.43;;;6.70;99.90;;;;;;4990174;28;20208;-62
2021/03/29 04:03:15;;;;;;;11.90;5.47;;;6.70;99.90;;;;;;4984833;28;20201;-61
2021/03/29 04:05:42;;;;;;;8.77;5.40;;;6.80;99.90;;;;;;4984227;28;20198;-62
2021/03/29 04:08:09;;;;;;;12.80;5.53;;;6.70;99.90;;;;;;4986587;28;20205;-60
2021/03/29 04:10:42;;;;;;;9.80;5.33;;;6.80;99.90;;;;;;4983663;28;20240;-61
2021/03/29 04:13:11;;;;;;;11.43;5.40;;;6.80;99.90;;;;;;4984608;28;20214;-61
2021/03/29 04:15:37;;;;;;;11.57;5.37;;;6.80;99.90;;;;;;4983365;28;20197;-61
2021/03/29 04:18:05;;;;;;;12.70;5.73;;;6.80;99.90;;;;;;4985055;28;20622;-60
2021/03/29 04:20:32;;;;;;;11.53;5.33;;;6.70;99.90;;;;;;4984980;28;20201;-61
2021/03/29 04:22:59;;;;;;;12.10;5.43;;;6.60;99.90;;;;;;4983305;28;20210;-61
2021/03/29 04:25:25;;;;;;;8.43;5.00;;;6.50;99.90;;;;;;4986299;28;20272;-62
2021/03/29 04:27:52;;;;;;;8.00;5.17;;;6.50;99.90;;;;;;4990815;28;20205;-60
2021/03/29 04:30:19;;;;;;;11.07;5.13;;;6.60;99.90;;;;;;4988359;28;20221;-61
2021/03/29 04:32:47;;;;;;;9.97;4.93;;;6.60;99.90;;;;;;4990820;28;20217;-61
2021/03/29 04:35:15;;;;;;;12.43;5.80;;;6.60;99.90;;;;;;4989838;28;20201;-61
2021/03/29 04:37:43;;;;;;;13.07;6.70;;;6.60;99.90;;;;;;4990087;28;20260;-60
2021/03/29 04:40:11;;;;;;;10.97;5.93;;;6.70;99.90;;;;;;4989508;28;20205;-60
2021/03/29 04:42:37;;;;;;;10.53;5.13;;;6.90;99.90;;;;;;4989119;28;20280;-60
2021/03/29 04:45:06;;;;;;;12.37;5.80;;;6.90;99.90;;;;;;4988621;28;20206;-60
2021/03/29 04:47:33;;;;;;;15.20;5.47;;;6.90;99.90;;;;;;4989750;28;20343;-60
2021/03/29 04:49:59;;;;;;;8.90;5.20;;;6.90;99.90;;;;;;4989377;28;20197;-62
2021/03/29 04:52:26;;;;;;;10.77;6.03;;;7.00;99.90;;;;;;4987945;28;21186;-61
2021/03/29 04:54:53;;;;;;;7.43;5.23;;;7.00;99.90;;;;;;4986889;28;20646;-62
2021/03/29 04:57:20;;;;;;;15.23;5.57;;;6.90;99.90;;;;;;4990552;28;20209;-61
2021/03/29 04:59:46;;;;;;;11.37;4.93;;;6.90;99.90;;;;;;4988807;28;20243;-61
2021/03/29 05:02:12;;;;;;;11.97;5.23;;;6.90;99.90;;;;;;4988797;28;20198;-61
2021/03/29 05:04:39;;;;;;;12.30;6.20;;;6.90;99.90;;;;;;4988753;28;20213;-61
2021/03/29 05:07:09;;;;;;;13.67;6.53;;;6.90;99.90;;;;;;4989435;28;20252;-61
2021/03/29 05:09:35;;;;;;;13.00;5.53;;;6.90;99.90;;;;;;4987271;28;20209;-61
2021/03/29 05:12:09;;;;;;;8.53;5.20;;;7.00;99.90;;;;;;4985749;28;20225;-61
2021/03/29 05:14:36;;;;;;;11.57;5.57;;;7.00;99.90;;;;;;4986248;28;20228;-63
2021/03/29 05:17:04;;;;;;;13.10;6.27;;;7.10;99.90;;;;;;4991791;28;20208;-61
2021/03/29 05:19:30;;;;;;;9.03;5.57;;;7.20;99.90;;;;;;4987212;28;20204;-61
2021/03/29 05:21:57;;;;;;;11.33;6.03;;;7.20;99.90;;;;;;4989475;28;20202;-61
2021/03/29 05:24:23;;;;;;;12.73;5.60;;;7.20;99.90;;;;;;4986734;28;20578;-61
2021/03/29 05:26:50;;;;;;;7.07;5.37;;;7.20;99.90;;;;;;4988518;28;20197;-61
2021/03/29 05:29:17;;;;;;;10.87;5.00;;;7.20;99.90;;;;;;4979738;28;20198;-61
2021/03/29 05:31:44;;;;;;;12.27;6.20;;;7.30;99.90;;;;;;4992346;28;20238;-61
2021/03/29 05:34:11;;;;;;;9.37;5.33;;;7.30;99.90;;;;;;4991954;28;20658;-63
2021/03/29 05:36:38;;;;;;;9.23;5.60;;;7.30;99.90;;;;;;4992775;28;20205;-61
2021/03/29 05:39:06;;;;;;;9.23;5.63;;;7.30;99.90;;;;;;4988506;28;20206;-61
2021/03/29 05:41:33;;;;;;;15.33;6.07;;;7.30;99.90;;;;;;4987944;28;20205;-61
2021/03/29 05:44:00;;;;;;;12.63;5.40;;;7.30;99.90;;;;;;4988380;28;20206;-60
2021/03/29 05:46:27;;;;;;;9.30;5.03;;;7.30;99.90;;;;;;4987724;28;20193;-61
2021/03/29 05:48:54;;;;;;;12.57;5.00;;;7.40;99.90;;;;;;4987564;28;20539;-61
2021/03/29 05:51:20;;;;;;;9.33;5.20;;;7.50;99.90;;;;;;4986261;28;20218;-61
2021/03/29 05:53:47;;;;;;;10.13;5.00;;;7.60;99.90;;;;;;4983295;28;20604;-60
2021/03/29 05:56:14;;;;;;;12.90;5.30;;;7.60;99.90;;;;;;4984229;28;20216;-61
2021/03/29 05:58:44;;;;;;;9.30;5.20;;;7.60;99.90;;;;;;4984429;28;20690;-61
2021/03/29 06:01:11;;;;;;;9.43;4.87;;;7.60;99.90;;;;;;4988759;28;20501;-61
2021/03/29 06:03:40;;;;;;;11.77;4.97;;;7.70;99.90;;;;;;4985292;28;20210;-61
2021/03/29 06:06:19;;;;;;;13.50;4.83;;;7.80;99.90;;;;;;4989173;28;20213;-60
2021/03/29 06:08:47;;;;;;;8.07;4.57;;;7.90;99.90;;;;;;4985925;28;20283;-61
2021/03/29 06:11:25;;;;;;;12.17;4.43;;;7.90;99.90;;;;;;4985666;28;20206;-61
2021/03/29 06:14:12;;;;;;;11.57;4.97;;;8.10;99.90;;;;;;4986883;28;20213;-61
2021/03/29 06:16:53;;;;;;;9.93;4.87;;;8.40;99.90;;;;;;4985227;28;20201;-61
2021/03/29 06:19:42;;;;;;;5.77;4.03;;;8.80;99.90;;;;;;4987443;28;20208;-61
2021/03/29 06:22:21;;;;;;;8.33;4.80;;;9.20;99.90;;;;;;4987888;28;20285;-61
2021/03/29 06:25:09;;;;;;;8.80;4.30;;;9.60;99.90;;;;;;4987330;28;20193;-60
2021/03/29 06:27:43;;;;;;;10.03;4.87;;;10.10;99.90;;;;;;4988649;28;20594;-60
2021/03/29 06:30:32;;;;;;;8.93;3.93;;;10.40;99.90;;;;;;4987010;28;20277;-61
2021/03/29 06:33:03;;;;;;;9.27;4.20;;;10.70;99.90;;;;;;4986130;28;20296;-61
2021/03/29 06:35:36;;;;;;;9.77;4.13;;;10.90;99.90;;;;;;4987528;28;20198;-61
2021/03/29 06:38:04;;;;;;;7.17;4.13;;;11.20;99.90;;;;;;4984424;28;20205;-61
2021/03/29 06:40:31;;;;;;;8.87;3.93;;;11.40;99.90;;;;;;4987632;28;20713;-62
2021/03/29 06:42:57;;;;;;;10.73;3.90;;;11.60;99.90;;;;;;4987970;28;20205;-61
2021/03/29 06:45:24;;;;;;;5.90;3.53;;;11.80;99.90;;;;;;4984605;28;20286;-63
2021/03/29 06:47:51;;;;;;;8.50;3.97;;;12.00;99.90;;;;;;4987885;28;20198;-61
2021/03/29 06:50:24;;;;;;;7.03;4.00;;;12.10;99.90;;;;;;4987751;28;20248;-61
2021/03/29 06:52:52;;;;;;;10.47;4.00;;;12.30;99.90;;;;;;4988547;28;20276;-61
2021/03/29 06:55:22;;;;;;;10.17;4.33;;;12.50;99.90;;;;;;4983490;28;20647;-62
2021/03/29 06:58:00;;;;;;;7.63;4.20;;;12.70;99.90;;;;;;4987142;28;20206;-63
2021/03/29 07:00:31;;;;;;;7.30;4.13;;;12.80;99.90;;;;;;4985662;28;20225;-61
2021/03/29 07:03:03;;;;;;;9.77;4.07;;;12.90;99.90;;;;;;4986843;28;20285;-61
2021/03/29 07:05:32;;;;;;;8.40;4.00;;;13.00;99.90;;;;;;4986719;28;20197;-62
2021/03/29 07:08:01;;;;;;;7.90;4.00;;;13.30;99.90;;;;;;4985152;28;20206;-64
2021/03/29 07:10:28;;;;;;;7.40;4.03;;;13.50;99.90;;;;;;4986996;28;20579;-61
2021/03/29 07:12:56;;;;;;;7.43;4.17;;;13.70;99.90;;;;;;4985651;28;20280;-62
2021/03/29 07:15:23;;;;;;;8.17;4.17;;;13.80;99.90;;;;;;4987436;28;20209;-60
2021/03/29 07:17:50;;;;;;;5.90;3.87;;;13.70;99.90;;;;;;4992519;28;20208;-61
2021/03/29 07:20:23;;;;;;;10.43;4.23;;;13.50;99.90;;;;;;4990266;28;20206;-61
2021/03/29 07:22:50;;;;;;;8.17;4.17;;;13.60;99.90;;;;;;4988828;28;20197;-61
2021/03/29 07:25:20;;;;;;;8.60;4.20;;;13.30;99.90;;;;;;4988879;28;20228;-61
2021/03/29 07:27:49;;;;;;;10.03;4.70;;;13.10;99.90;;;;;;4992552;28;20189;-62
2021/03/29 07:30:18;;;;;;;7.27;4.07;;;12.90;99.90;;;;;;4990638;28;20238;-61
2021/03/29 07:32:54;;;;;;;8.03;4.00;;;12.70;99.90;;;;;;4992051;28;20595;-61
2021/03/29 07:35:21;;;;;;;8.67;4.17;;;12.80;99.90;;;;;;4990272;28;20705;-61
2021/03/29 07:37:55;;;;;;;6.83;4.20;;;12.90;99.90;;;;;;4988179;28;20204;-61
2021/03/29 07:40:42;;;;;;;7.77;4.40;;;12.80;99.90;;;;;;4983140;28;20655;-61
2021/03/29 07:43:12;;;;;;;6.50;4.40;;;12.70;99.90;;;;;;4990296;28;20209;-63
2021/03/29 07:45:52;;;;;;;8.80;4.27;;;12.70;99.90;;;;;;4991340;28;20205;-62
2021/03/29 07:48:39;;;;;;;8.87;4.60;;;12.60;99.90;;;;;;4992380;28;20240;-62
2021/03/29 07:51:11;;;;;;;8.30;4.87;;;12.60;99.90;;;;;;4985525;28;20198;-62
2021/03/29 07:53:46;;;;;;;9.27;4.10;;;12.60;99.90;;;;;;4989506;28;20202;-63
2021/03/29 07:56:39;;;;;;;6.67;4.20;;;12.50;99.90;;;;;;4985103;28;20207;-63
2021/03/29 07:59:06;;;;;;;6.97;4.53;;;12.70;99.90;;;;;;4985575;28;21495;-62
2021/03/29 08:02:02;;;;;;;6.63;4.23;;;13.20;99.90;;;;;;4984483;28;20245;-63
2021/03/29 08:05:03;;;;;;;6.67;4.17;;;13.80;99.90;;;;;;4984426;28;20198;-65
2021/03/29 08:07:37;;;;;;;9.53;4.20;;;14.20;99.90;;;;;;4979845;28;20209;-61
2021/03/29 08:10:05;;;;;;;11.43;4.30;;;14.70;99.90;;;;;;4990313;28;20209;-62
2021/03/29 08:12:33;;;;;;;7.93;3.87;;;15.00;99.90;;;;;;4993231;28;20233;-61
2021/03/29 08:14:59;;;;;;;10.50;4.27;;;15.00;99.90;;;;;;4992117;28;20606;-63
2021/03/29 08:17:52;;;;;;;8.20;3.90;;;15.00;99.90;;;;;;4987252;28;20289;-62
2021/03/29 08:20:24;;;;;;;5.53;3.70;;;15.50;99.90;;;;;;4988984;28;20278;-63
2021/03/29 08:23:26;;;;;;;8.03;3.97;;;15.70;99.90;;;;;;4986990;28;20202;-63
2021/03/29 08:26:20;;;;;;;7.30;3.93;;;15.90;99.90;;;;;;4990116;28;20201;-62
2021/03/29 08:29:16;;;;;;;6.30;3.63;;;16.30;99.90;;;;;;4987889;28;20724;-62
2021/03/29 08:32:17;;;;;;;9.80;4.30;;;16.40;99.90;;;;;;4990204;28;20229;-62
2021/03/29 08:34:55;;;;;;;6.80;3.60;;;16.90;99.90;;;;;;4929032;29;20192;-64
2021/03/29 08:37:25;;;;;;;8.57;3.93;;;16.90;99.90;;;;;;4977726;28;20285;-62
2021/03/29 08:39:53;;;;;;;5.73;3.57;;;16.90;99.90;;;;;;4988819;28;20578;-63
2021/03/29 08:42:23;;;;;;;7.20;4.17;;;16.70;99.90;;;;;;4990720;28;20194;-62
2021/03/29 08:44:53;;;;;;;6.60;3.53;;;16.70;99.90;;;;;;4989856;28;20201;-62
2021/03/29 08:47:22;;;;;;;8.00;3.90;;;16.70;99.90;;;;;;4988464;28;20198;-63
2021/03/29 08:49:51;;;;;;;6.70;3.07;;;16.80;99.90;;;;;;4990724;28;20229;-63
2021/03/29 08:52:18;;;;;;;7.27;3.90;;;17.30;99.90;;;;;;4989299;28;20248;-63
2021/03/29 08:54:53;;;;;;;8.77;4.17;;;17.90;99.90;;;;;;4987394;28;20208;-62
2021/03/29 08:57:23;;;;;;;10.00;3.83;;;18.50;99.90;;;;;;4982061;28;20257;-62
2021/03/29 08:59:55;;;;;;;9.93;4.20;;;18.80;99.90;;;;;;4984500;28;21019;-61
2021/03/29 09:02:22;;;;;;;7.87;4.20;;;18.90;99.90;;;;;;4984046;28;20288;-60
2021/03/29 09:04:54;;;;;;;9.53;4.10;;;19.10;99.90;;;;;;4980638;28;20197;-68
2021/03/29 09:07:22;;;;;;;7.87;3.60;;;19.30;99.90;;;;;;4986017;28;20666;-61
2021/03/29 09:09:48;;;;;;;7.13;3.77;;;19.10;99.90;;;;;;4981918;28;20202;-62
2021/03/29 09:12:27;;;;;;;10.13;3.77;;;19.10;99.90;;;;;;4984816;28;20316;-63
2021/03/29 09:14:54;;;;;;;7.50;4.10;;;19.20;99.90;;;;;;4983060;28;20562;-63
2021/03/29 09:17:26;;;;;;;4.77;3.20;;;19.60;99.90;;;;;;4983759;28;20563;-65
2021/03/29 09:19:53;;;;;;;5.90;3.20;;;20.10;99.90;;;;;;4986831;28;20202;-63
2021/03/29 09:22:44;;;;;;;5.17;3.40;;;20.40;99.90;;;;;;4986005;28;20201;-63
2021/03/29 09:25:12;;;;;;;6.45;3.50;;;20.80;99.90;;;;;;4973121;28;20202;-64
2021/03/29 09:27:41;;;;;;;7.78;3.63;;;21.30;99.90;;;;;;4982916;28;20197;-62
2021/03/29 09:30:12;;;;;;;7.82;4.15;;;21.20;99.90;;;;;;4982837;28;20578;-64
2021/03/29 09:32:44;;;;;;;6.10;3.13;;;21.10;99.90;;;;;;4984538;28;20222;-64
2021/03/29 09:35:12;;;;;;;5.40;3.30;;;20.90;99.90;;;;;;4985409;28;20648;-62
2021/03/29 09:37:47;;;;;;;10.13;3.50;;;20.50;99.90;;;;;;4987240;28;20237;-62
2021/03/29 09:40:14;;;;;;;8.17;3.43;;;20.20;99.90;;;;;;4994924;28;20197;-66
2021/03/29 09:42:42;;;;;;;9.63;3.63;;;20.20;99.90;;;;;;4992823;28;20202;-61
2021/03/29 09:45:12;;;;;;;7.60;3.80;;;19.90;99.90;;;;;;4997246;28;20197;-63
2021/03/29 09:47:38;;;;;;;4.60;3.23;;;20.00;99.90;;;;;;4989019;28;20234;-63
2021/03/29 09:50:08;;;;;;;6.23;3.67;;;19.80;99.90;;;;;;4987550;28;20722;-65
2021/03/29 09:52:37;;;;;;;6.60;3.67;;;19.90;99.90;;;;;;4989229;28;20236;-62
2021/03/29 09:55:05;;;;;;;5.63;3.40;;;20.00;99.90;;;;;;4988722;28;20202;-66
2021/03/29 09:57:38;;;;;;;7.13;2.93;;;20.40;99.90;;;;;;4984049;28;20202;-65
2021/03/29 10:00:20;;;;;;;6.00;3.20;;;20.30;99.90;;;;;;4983199;28;20206;-64
2021/03/29 10:02:48;;;;;;;5.43;3.13;;;20.30;99.90;;;;;;4983569;28;20612;-68
2021/03/29 10:05:17;;;;;;;6.80;3.63;;;20.50;99.90;;;;;;4993561;28;20209;-63
2021/03/29 10:07:50;;;;;;;6.97;3.17;;;20.80;99.90;;;;;;4990776;28;20232;-62
2021/03/29 10:10:25;;;;;;;6.80;3.60;;;21.00;99.90;;;;;;4988822;28;20275;-62
2021/03/29 10:13:03;;;;;;;7.47;3.27;;;21.40;99.90;;;;;;4982114;28;20213;-65
2021/03/29 10:15:33;;;;;;;4.15;2.90;;;21.60;99.90;;;;;;4981408;28;20198;-68
2021/03/29 10:18:11;;;;;;;5.93;3.20;;;21.70;99.90;;;;;;4990585;28;20189;-65
2021/03/29 10:20:39;;;;;;;5.97;3.17;;;21.70;99.90;;;;;;4994581;28;20293;-65
2021/03/29 10:23:22;;;;;;;5.05;2.70;;;21.30;99.90;;;;;;4985678;28;20205;-66
2021/03/29 10:26:18;;;;;;;3.75;2.85;;;20.90;99.90;;;;;;4988935;28;20488;-62
2021/03/29 10:28:57;;;;;;;6.22;2.90;;;21.30;99.90;;;;;;4987914;28;20202;-66
2021/03/29 10:31:24;;;;;;;3.95;3.05;;;21.30;99.90;;;;;;4984809;28;20221;-65
2021/03/29 10:33:51;;;;;;;7.43;3.50;;;21.20;99.90;;;;;;4992946;28;21105;-68
2021/03/29 10:36:19;;;;;;;6.72;3.58;;;21.60;99.90;;;;;;4992424;28;20213;-66
2021/03/29 10:38:46;;;;;;;9.30;3.85;;;22.10;99.90;;;;;;4990025;28;20210;-61
2021/03/29 10:41:13;;;;;;;5.65;3.50;;;22.30;99.90;;;;;;4997650;28;20202;-65
2021/03/29 10:43:40;;;;;;;6.38;3.20;;;22.10;99.90;;;;;;5000093;28;20206;-62
2021/03/29 10:46:08;;;;;;;8.57;3.53;;;22.00;99.90;;;;;;4993982;28;20202;-62
2021/03/29 10:48:35;;;;;;;8.27;3.50;;;21.50;99.90;;;;;;4993050;28;20216;-62
2021/03/29 10:51:05;;;;;;;6.17;3.23;;;21.00;99.90;;;;;;4996512;28;20212;-65
2021/03/29 10:53:32;;;;;;;10.00;5.37;;;20.40;99.90;;;;;;4998406;28;20220;-62
2021/03/29 10:55:58;;;;;;;6.47;3.27;;;20.10;99.90;;;;;;4995657;28;20737;-59
2021/03/29 10:58:25;;;;;;;5.43;3.30;;;19.50;99.90;;;;;;4987216;28;20275;-67
2021/03/29 11:00:51;;;;;;;7.10;3.63;;;19.20;99.90;;;;;;4985608;28;20213;-67
2021/03/29 11:03:18;;;;;;;7.80;3.40;;;19.20;99.90;;;;;;4986295;28;20198;-62
2021/03/29 11:05:46;;;;;;;7.27;3.70;;;18.90;99.90;;;;;;4996125;28;20209;-66
2021/03/29 11:08:12;;;;;;;4.00;3.27;;;18.60;99.90;;;;;;4994599;28;20266;-66
2021/03/29 11:10:39;;;;;;;7.43;3.40;;;18.40;99.90;;;;;;4992770;28;20683;-63
2021/03/29 11:13:06;;;;;;;5.37;3.60;;;18.70;99.90;;;;;;4991692;28;20304;-68
2021/03/29 11:15:33;;;;;;;7.37;3.50;;;19.20;99.90;;;;;;4989390;28;20259;-64
2021/03/29 11:18:02;;;;;;;5.37;3.67;;;19.70;99.90;;;;;;4992434;28;20654;-63
2021/03/29 11:20:28;;;;;;;6.73;3.63;;;20.00;99.90;;;;;;4988537;28;20207;-64
2021/03/29 11:22:56;;;;;;;5.90;3.27;;;19.80;99.90;;;;;;4986849;28;20212;-66
2021/03/29 11:25:22;;;;;;;6.57;3.83;;;19.60;99.90;;;;;;4982374;28;20193;-66
2021/03/29 11:27:49;;;;;;;9.30;3.80;;;19.10;99.90;;;;;;4984464;28;20213;-65
2021/03/29 11:30:17;;;;;;;3.63;3.10;;;19.20;99.90;;;;;;4989958;28;20237;-63
2021/03/29 11:32:44;;;;;;;6.43;3.60;;;19.30;99.90;;;;;;4986816;28;20201;-67
2021/03/29 11:35:11;;;;;;;5.17;3.37;;;19.40;99.90;;;;;;4990503;28;20754;-70
2021/03/29 11:37:38;;;;;;;6.33;3.77;;;20.10;99.90;;;;;;4997218;28;20279;-68
2021/03/29 11:40:07;;;;;;;6.53;3.30;;;20.40;99.90;;;;;;4997651;28;20977;-63
2021/03/29 11:42:33;;;;;;;6.03;3.30;;;20.90;99.90;;;;;;4992298;28;20204;-69
2021/03/29 11:45:00;;;;;;;7.10;3.63;;;21.20;99.90;;;;;;4988578;28;20206;-70
2021/03/29 11:47:26;;;;;;;3.90;3.10;;;21.40;99.90;;;;;;4986568;28;20869;-63
2021/03/29 11:49:53;;;;;;;7.38;3.15;;;21.60;99.90;;;;;;4985158;28;20214;-64
2021/03/29 11:52:19;;;;;;;5.57;3.35;;;21.80;99.90;;;;;;4984929;28;20221;-63
2021/03/29 11:54:46;;;;;;;6.07;3.38;;;22.20;99.90;;;;;;4987229;28;20307;-63
2021/03/29 11:57:13;;;;;;;5.03;2.90;;;22.30;99.90;;;;;;4986674;28;20625;-63
2021/03/29 11:59:45;;;;;;;5.45;3.40;;;22.60;99.90;;;;;;4986851;28;20202;-68
2021/03/29 12:02:16;;;;;;;6.72;3.90;;;22.90;99.90;;;;;;4984613;28;20228;-65
2021/03/29 12:04:48;;;;;;;9.18;3.28;;;23.10;99.90;;;;;;4987545;28;20222;-63
2021/03/29 12:07:18;;;;;;;4.28;3.35;;;23.50;99.90;;;;;;4988236;28;20194;-64
2021/03/29 12:09:51;;;;;;;6.18;3.10;;;23.70;99.90;;;;;;4990354;28;20296;-68
2021/03/29 12:12:18;;;;;;;4.28;3.20;;;24.00;99.90;;;;;;4986462;28;20214;-66
2021/03/29 12:14:47;;;;;;;6.22;3.60;;;23.90;99.30;;;;;;4989233;28;20201;-62
2021/03/29 12:17:15;;;;;;;3.97;3.20;;;23.90;99.70;;;;;;4986696;28;20198;-65
2021/03/29 12:19:43;;;;;;;6.43;3.03;;;23.90;99.70;;;;;;4991666;28;20205;-67
2021/03/29 12:22:12;;;;;;;7.38;3.30;;;24.40;99.80;;;;;;4990774;28;20293;-62
2021/03/29 12:24:43;;;;;;;5.22;3.53;;;24.50;97.80;;;;;;4988057;28;20561;-65
2021/03/29 12:27:12;;;;;;;5.97;2.75;;;24.20;98.80;;;;;;4987157;28;20583;-67
2021/03/29 12:29:41;;;;;;;6.00;3.05;;;24.20;97.50;;;;;;4987260;28;20201;-66
2021/03/29 12:32:11;;;;;;;8.88;3.25;;;24.10;97.60;;;;;;4984323;28;20415;-70
2021/03/29 12:34:42;;;;;;;9.38;3.20;;;24.10;97.30;;;;;;4986305;28;20647;-65
2021/03/29 12:37:09;;;;;;;7.25;3.33;;;24.20;98.30;;;;;;4987802;28;20289;-64
2021/03/29 12:39:39;;;;;;;4.10;2.92;;;24.30;97.20;;;;;;4987733;28;20281;-67
2021/03/29 12:42:10;;;;;;;5.30;3.20;;;24.20;96.70;;;;;;4982200;28;20206;-64
2021/03/29 12:44:36;;;;;;;6.10;3.00;;;24.30;95.80;;;;;;4993036;28;20281;-65
2021/03/29 12:47:07;;;;;;;5.03;3.15;;;24.10;95.70;;;;;;5002801;28;20304;-65
2021/03/29 12:49:33;;;;;;;4.88;3.13;;;24.10;95.70;;;;;;5003708;28;20198;-64
2021/03/29 12:52:02;;;;;;;5.65;3.47;;;24.10;96.50;;;;;;5010232;28;20201;-64
2021/03/29 12:54:32;;;;;;;7.18;3.03;;;24.10;94.60;;;;;;5011182;28;20193;-65
2021/03/29 12:57:00;;;;;;;5.85;3.15;;;24.10;95.50;;;;;;4979259;28;20197;-67
2021/03/29 12:59:28;;;;;;;8.23;4.00;;;24.30;94.70;;;;;;4993490;28;20245;-65
2021/03/29 13:01:56;;;;;;;8.68;3.25;;;24.30;93.30;;;;;;4980811;28;20198;-68
2021/03/29 13:04:26;;;;;;;6.55;3.50;;;24.30;94.00;;;;;;4983095;28;20209;-68